Sainte-Anne-Des-Monts, Canada
Current Conditions -  °F | °C
As of 2:16 AM on Sunday 26 Oct 2014 (Local Time) from CYZV Reporting Station
Light Snow Light Snow  
Wind Chill: 26°   Ceiling: 3000
Heat Index: 32°   Visibility: 15mi
Dew Point: 32°   Wind: 7mph
Humidity: 100%   Direction: 60°ENE
Pressure: 29.56"   Gusts: NA
Location:  49.12°N, 66.48°W
Report Text: CYZV 260616Z 06006KT 15SM -SN FEW004 SCT012 OVC030 00/M00 A2956 RMK SF1SC2SC5 SLP012
Loading
Personal Weather Stations






























Interactive Weather Map
Tropical Storm Tracking
New forecast layout! Learn more

10-Day Weather Forecast

Advertisements
Track Severe Weather on mobile